Time;durP1;ratioP1;P1;durP2;ratioP2;P2;SDS_P1;SDS_P2;PMS_P1;PMS_P2;Temp;Humidity;BMP_temperature;BMP_pressure;BME280_temperature;BME280_humidity;BME280_pressure;Samples;Min_cycle;Max_cycle;Signal;HPM_P1;HPM_P2
2022/10/22 00:02:22;;;;;;;18.33;8.50;;;12.90;99.90;;;;;;5023990;28;20230;-79
2022/10/22 00:04:49;;;;;;;17.13;9.30;;;12.90;99.90;;;;;;5026256;28;20217;-78
2022/10/22 00:07:18;;;;;;;17.10;9.20;;;12.90;99.90;;;;;;5019841;28;20202;-78
2022/10/22 00:09:45;;;;;;;17.67;9.20;;;12.90;99.90;;;;;;5022863;28;20701;-78
2022/10/22 00:12:14;;;;;;;13.13;7.80;;;12.90;99.90;;;;;;5020787;28;20283;-78
2022/10/22 00:14:41;;;;;;;14.07;7.73;;;12.90;99.90;;;;;;5025462;28;20296;-77
2022/10/22 00:17:08;;;;;;;14.93;9.23;;;12.90;99.90;;;;;;5029076;28;20262;-79
2022/10/22 00:19:38;;;;;;;17.00;8.57;;;12.80;99.90;;;;;;5023489;28;20765;-78
2022/10/22 00:22:05;;;;;;;17.53;9.47;;;12.80;99.90;;;;;;5055778;28;20225;-78
2022/10/22 00:24:33;;;;;;;14.90;8.67;;;12.80;99.90;;;;;;5019652;28;20210;-78
2022/10/22 00:27:01;;;;;;;20.50;9.67;;;12.80;99.90;;;;;;5022062;28;20316;-79
2022/10/22 00:29:28;;;;;;;18.57;10.03;;;12.80;99.90;;;;;;5025894;28;20685;-79
2022/10/22 00:31:55;;;;;;;18.73;11.73;;;12.80;99.90;;;;;;5043672;28;20197;-77
2022/10/22 00:34:23;;;;;;;16.53;10.73;;;12.70;99.90;;;;;;5024093;28;20222;-78
2022/10/22 00:36:52;;;;;;;16.10;9.90;;;12.70;99.90;;;;;;5030193;28;20205;-77
2022/10/22 00:39:22;;;;;;;16.23;9.87;;;12.70;99.90;;;;;;5033127;28;20264;-77
2022/10/22 00:41:51;;;;;;;18.17;10.50;;;12.70;99.90;;;;;;5051700;28;20211;-79
2022/10/22 00:44:55;;;;;;;18.07;10.97;;;12.70;99.90;;;;;;5020716;28;20334;-77
2022/10/22 00:47:24;;;;;;;18.10;11.00;;;12.70;99.90;;;;;;5027131;28;20296;-78
2022/10/22 00:49:53;;;;;;;20.83;11.80;;;12.60;99.90;;;;;;5026309;28;20302;-78
2022/10/22 00:52:21;;;;;;;23.00;10.80;;;12.60;99.90;;;;;;5029403;28;20216;-79
2022/10/22 00:54:49;;;;;;;22.63;11.83;;;12.60;99.90;;;;;;5028317;28;20753;-79
2022/10/22 00:57:17;;;;;;;18.03;11.23;;;12.60;99.90;;;;;;5020001;28;20226;-79
2022/10/22 00:59:44;;;;;;;22.10;12.10;;;12.60;99.90;;;;;;5026925;28;20198;-78
2022/10/22 01:02:11;;;;;;;22.57;12.80;;;12.60;99.90;;;;;;5024604;28;20258;-78
2022/10/22 01:04:40;;;;;;;25.50;13.10;;;12.70;99.90;;;;;;5026541;28;20214;-77
2022/10/22 01:07:16;;;;;;;26.30;13.57;;;12.70;99.90;;;;;;5018505;28;20643;-77
2022/10/22 01:10:01;;;;;;;28.13;14.47;;;12.80;99.90;;;;;;5025855;28;20297;-78
2022/10/22 01:12:53;;;;;;;33.97;13.67;;;12.80;99.90;;;;;;5018166;28;20224;-77
2022/10/22 01:15:48;;;;;;;23.23;12.93;;;12.80;99.90;;;;;;5018949;28;20541;-79
2022/10/22 01:18:35;;;;;;;23.53;12.13;;;12.80;99.90;;;;;;5018420;28;20292;-78
2022/10/22 01:21:15;;;;;;;29.73;13.17;;;12.80;99.90;;;;;;5026357;28;20311;-78
2022/10/22 01:24:03;;;;;;;24.63;12.37;;;12.80;99.90;;;;;;5015854;28;20264;-80
2022/10/22 01:26:49;;;;;;;24.13;12.77;;;12.80;99.90;;;;;;5026126;28;20211;-76
2022/10/22 01:29:48;;;;;;;26.20;13.00;;;12.80;99.90;;;;;;5023351;28;20208;-78
2022/10/22 01:32:20;;;;;;;24.27;13.30;;;12.80;99.90;;;;;;5017928;28;20854;-78
2022/10/22 01:34:54;;;;;;;28.60;14.80;;;12.80;99.90;;;;;;5023322;28;20321;-78
2022/10/22 01:37:23;;;;;;;27.20;14.07;;;12.80;99.90;;;;;;5021140;28;20222;-77
2022/10/22 01:39:51;;;;;;;27.03;13.80;;;12.90;99.90;;;;;;5030890;28;20198;-78
2022/10/22 01:42:19;;;;;;;28.97;13.70;;;12.90;99.90;;;;;;5022669;28;20261;-78
2022/10/22 01:44:48;;;;;;;26.03;14.13;;;12.90;99.90;;;;;;5018017;28;20210;-78
2022/10/22 01:47:15;;;;;;;23.83;13.47;;;12.90;99.90;;;;;;5028958;28;20276;-78
2022/10/22 01:49:48;;;;;;;28.83;14.03;;;13.00;99.90;;;;;;5029029;28;20304;-78
2022/10/22 01:52:29;;;;;;;26.57;14.03;;;13.00;99.90;;;;;;5025864;28;20244;-78
2022/10/22 01:55:21;;;;;;;27.70;13.80;;;13.00;99.90;;;;;;5025109;28;20262;-78
2022/10/22 01:58:09;;;;;;;24.97;13.73;;;13.00;99.90;;;;;;5023086;28;20773;-78
2022/10/22 02:00:43;;;;;;;24.90;12.83;;;13.00;99.90;;;;;;5030119;28;20216;-78
2022/10/22 02:03:17;;;;;;;29.10;13.73;;;13.10;99.90;;;;;;5025163;28;20214;-79
2022/10/22 02:05:54;;;;;;;25.63;14.20;;;13.00;99.90;;;;;;5019777;28;20308;-77
2022/10/22 02:08:26;;;;;;;26.27;14.13;;;13.10;99.90;;;;;;5027104;28;20210;-78
2022/10/22 02:10:55;;;;;;;27.30;14.37;;;13.10;99.90;;;;;;5028550;28;20288;-78
2022/10/22 02:13:32;;;;;;;27.27;14.87;;;13.10;99.90;;;;;;5021531;28;20292;-78
2022/10/22 02:16:01;;;;;;;30.23;14.90;;;13.10;99.90;;;;;;5021868;28;20264;-77
2022/10/22 02:18:32;;;;;;;26.40;14.03;;;13.00;99.90;;;;;;5056362;28;20534;-77
2022/10/22 02:21:05;;;;;;;23.33;13.67;;;13.00;99.90;;;;;;5021791;28;20214;-78
2022/10/22 02:23:37;;;;;;;22.57;13.83;;;13.00;99.90;;;;;;5024386;28;20602;-78
2022/10/22 02:26:18;;;;;;;24.40;14.07;;;12.90;99.90;;;;;;5022002;28;20206;-78
2022/10/22 02:28:55;;;;;;;31.43;14.20;;;12.90;99.90;;;;;;5026700;28;20277;-78
2022/10/22 02:31:28;;;;;;;28.03;14.30;;;12.90;99.90;;;;;;5027101;28;20259;-78
2022/10/22 02:34:00;;;;;;;28.33;14.63;;;12.80;99.90;;;;;;5030316;28;20229;-78
2022/10/22 02:36:27;;;;;;;33.17;16.30;;;12.80;99.90;;;;;;5021661;28;20723;-78
2022/10/22 02:38:57;;;;;;;30.53;15.67;;;12.80;99.90;;;;;;5033907;28;20215;-78
2022/10/22 02:41:24;;;;;;;32.17;15.63;;;12.80;99.90;;;;;;5030597;28;20210;-78
2022/10/22 02:43:53;;;;;;;30.27;14.73;;;12.80;99.90;;;;;;5024510;28;20230;-77
2022/10/22 02:46:20;;;;;;;32.17;16.37;;;12.80;99.90;;;;;;5028214;28;20206;-78
2022/10/22 02:48:47;;;;;;;34.07;17.50;;;12.70;99.90;;;;;;5026973;28;20635;-77
2022/10/22 02:51:14;;;;;;;29.47;15.57;;;12.70;99.90;;;;;;5030861;28;20633;-76
2022/10/22 02:53:41;;;;;;;32.57;16.73;;;12.70;99.90;;;;;;5026140;28;20219;-78
2022/10/22 02:56:08;;;;;;;32.50;14.97;;;12.70;99.90;;;;;;5028840;28;20245;-78
2022/10/22 02:58:35;;;;;;;33.73;17.60;;;12.70;99.90;;;;;;5027429;28;20297;-77
2022/10/22 03:01:01;;;;;;;31.77;16.67;;;12.70;99.90;;;;;;5022044;28;20302;-78
2022/10/22 03:03:28;;;;;;;34.77;17.20;;;12.60;99.90;;;;;;5024754;28;20226;-78
2022/10/22 03:05:55;;;;;;;43.73;18.67;;;12.60;99.90;;;;;;5020552;28;20602;-78
2022/10/22 03:08:22;;;;;;;37.47;17.97;;;12.60;99.90;;;;;;5021259;28;20224;-78
2022/10/22 03:10:49;;;;;;;36.40;17.93;;;12.60;99.90;;;;;;5029677;28;20274;-78
2022/10/22 03:13:15;;;;;;;33.27;17.53;;;12.60;99.90;;;;;;5026905;28;20198;-78
2022/10/22 03:15:42;;;;;;;39.27;19.20;;;12.60;99.90;;;;;;5023048;28;20233;-77
2022/10/22 03:18:09;;;;;;;38.57;18.17;;;12.60;99.90;;;;;;5023991;28;20222;-78
2022/10/22 03:20:36;;;;;;;38.13;20.00;;;12.60;99.90;;;;;;5021732;28;20271;-77
2022/10/22 03:23:05;;;;;;;44.80;19.63;;;12.60;99.90;;;;;;5016716;28;20682;-77
2022/10/22 03:25:34;;;;;;;37.33;18.40;;;12.60;99.90;;;;;;5016428;28;20545;-79
2022/10/22 03:28:08;;;;;;;40.47;19.90;;;12.60;99.90;;;;;;5019667;28;20218;-77
2022/10/22 03:30:34;;;;;;;39.93;19.73;;;12.60;99.90;;;;;;5025838;28;20208;-77
2022/10/22 03:33:02;;;;;;;38.40;19.20;;;12.60;99.90;;;;;;5025444;28;20285;-77
2022/10/22 03:35:30;;;;;;;38.37;19.37;;;12.60;99.90;;;;;;5024182;28;20221;-77
2022/10/22 03:37:59;;;;;;;36.27;18.53;;;12.50;99.90;;;;;;5023266;28;20539;-78
2022/10/22 03:40:26;;;;;;;38.27;18.73;;;12.50;99.90;;;;;;5023234;28;20214;-78
2022/10/22 03:42:52;;;;;;;38.33;18.70;;;12.50;99.90;;;;;;5038958;28;20211;-77
2022/10/22 03:45:20;;;;;;;42.83;20.90;;;12.50;99.90;;;;;;5029660;28;20277;-79
2022/10/22 03:47:47;;;;;;;42.60;20.50;;;12.50;99.90;;;;;;5027030;28;20205;-78
2022/10/22 03:50:14;;;;;;;39.10;18.93;;;12.50;99.90;;;;;;5017910;28;20229;-78
2022/10/22 03:52:40;;;;;;;37.70;17.87;;;12.50;99.90;;;;;;5022437;28;20216;-77
2022/10/22 03:55:08;;;;;;;38.87;18.77;;;12.50;99.90;;;;;;5016470;28;20206;-77
2022/10/22 03:57:35;;;;;;;43.70;19.77;;;12.40;99.90;;;;;;5029905;28;20582;-78
2022/10/22 04:00:05;;;;;;;40.23;20.43;;;12.40;99.90;;;;;;5030915;28;20233;-78
2022/10/22 04:02:31;;;;;;;45.63;19.90;;;12.40;99.90;;;;;;5053348;28;20353;-78
2022/10/22 04:04:58;;;;;;;47.93;21.10;;;12.40;99.90;;;;;;5032570;28;20205;-78
2022/10/22 04:07:25;;;;;;;36.60;19.60;;;12.40;99.90;;;;;;5026341;28;20232;-78
2022/10/22 04:09:52;;;;;;;43.53;19.73;;;12.40;99.90;;;;;;5022694;28;20220;-79
2022/10/22 04:12:19;;;;;;;38.50;18.53;;;12.50;99.90;;;;;;5028877;28;20209;-78
2022/10/22 04:14:46;;;;;;;41.60;18.70;;;12.40;99.90;;;;;;5024467;28;20216;-78
2022/10/22 04:17:14;;;;;;;38.43;19.07;;;12.40;99.90;;;;;;5019354;28;20211;-78
2022/10/22 04:19:40;;;;;;;42.70;19.40;;;12.40;99.90;;;;;;5018511;28;20218;-78
2022/10/22 04:22:07;;;;;;;42.70;21.00;;;12.40;99.90;;;;;;5030270;28;20284;-78
2022/10/22 04:24:35;;;;;;;43.77;21.43;;;12.40;99.90;;;;;;5025254;28;20308;-76
2022/10/22 04:27:02;;;;;;;46.67;21.13;;;12.40;99.90;;;;;;5049946;28;20206;-78
2022/10/22 04:29:29;;;;;;;44.40;21.40;;;12.40;99.90;;;;;;5024268;28;20280;-78
2022/10/22 04:31:56;;;;;;;52.30;22.20;;;12.40;99.90;;;;;;5029826;28;20212;-78
2022/10/22 04:34:26;;;;;;;43.20;20.00;;;12.40;99.90;;;;;;5021149;28;20238;-78
2022/10/22 04:36:53;;;;;;;44.50;22.07;;;12.40;99.90;;;;;;5023101;28;20662;-78
2022/10/22 04:39:20;;;;;;;38.23;20.63;;;12.50;99.90;;;;;;5022316;28;20205;-78
2022/10/22 04:41:47;;;;;;;53.30;23.03;;;12.50;99.90;;;;;;5022988;28;20289;-78
2022/10/22 04:44:14;;;;;;;44.60;20.60;;;12.50;99.90;;;;;;5022280;28;20229;-77
2022/10/22 04:46:45;;;;;;;43.40;21.03;;;12.50;99.90;;;;;;5027057;28;20198;-78
2022/10/22 04:49:12;;;;;;;43.37;19.73;;;12.50;99.90;;;;;;5026456;28;20352;-78
2022/10/22 04:51:39;;;;;;;41.53;19.60;;;12.50;99.90;;;;;;5029072;28;20556;-77
2022/10/22 04:54:06;;;;;;;39.57;20.10;;;12.50;99.90;;;;;;5029844;28;20212;-78
2022/10/22 04:56:32;;;;;;;39.37;19.63;;;12.50;99.90;;;;;;5014433;28;20304;-76
2022/10/22 04:59:05;;;;;;;36.63;19.27;;;12.50;99.90;;;;;;5016462;28;20199;-78
2022/10/22 05:01:37;;;;;;;38.60;19.47;;;12.50;99.90;;;;;;5046057;28;20234;-77
2022/10/22 05:04:12;;;;;;;36.03;18.47;;;12.50;99.90;;;;;;5023281;28;20221;-79
2022/10/22 05:06:39;;;;;;;35.63;18.80;;;12.50;99.90;;;;;;5032044;28;20202;-78
2022/10/22 05:09:11;;;;;;;44.47;18.63;;;12.50;99.90;;;;;;5031366;28;20209;-76
2022/10/22 05:11:45;;;;;;;38.33;18.03;;;12.50;99.90;;;;;;5033801;28;20718;-78
2022/10/22 05:14:11;;;;;;;36.17;17.27;;;12.50;99.90;;;;;;5037909;28;20209;-78
2022/10/22 05:16:39;;;;;;;35.27;17.83;;;12.40;99.90;;;;;;5030260;28;20296;-78
2022/10/22 05:19:07;;;;;;;34.53;17.43;;;12.50;99.90;;;;;;5031876;28;20221;-77
2022/10/22 05:21:34;;;;;;;36.17;16.60;;;12.40;99.90;;;;;;5024676;28;20289;-78
2022/10/22 05:24:01;;;;;;;40.30;17.10;;;12.40;99.90;;;;;;5029506;28;20294;-78
2022/10/22 05:26:28;;;;;;;36.80;16.07;;;12.40;99.90;;;;;;5030667;28;20193;-78
2022/10/22 05:28:55;;;;;;;34.87;16.60;;;12.40;99.90;;;;;;5022575;28;20248;-78
2022/10/22 05:31:22;;;;;;;35.37;16.50;;;12.40;99.90;;;;;;5031271;28;20205;-78
2022/10/22 05:33:49;;;;;;;36.63;16.73;;;12.40;99.90;;;;;;5029904;28;20230;-79
2022/10/22 05:36:19;;;;;;;37.90;17.40;;;12.30;99.90;;;;;;5031181;28;20198;-79
2022/10/22 05:38:46;;;;;;;36.83;16.33;;;12.40;99.90;;;;;;5030535;28;20209;-78
2022/10/22 05:41:21;;;;;;;29.90;15.70;;;12.40;99.90;;;;;;5032782;28;20210;-78
2022/10/22 05:43:49;;;;;;;34.93;16.53;;;12.40;99.90;;;;;;5025231;28;20225;-78
2022/10/22 05:46:18;;;;;;;41.50;17.07;;;12.40;99.90;;;;;;5029591;28;20546;-79
2022/10/22 05:49:01;;;;;;;37.37;15.97;;;12.30;99.90;;;;;;5026475;28;20206;-77
2022/10/22 05:51:31;;;;;;;36.47;15.37;;;12.40;99.90;;;;;;5030154;28;20342;-76
2022/10/22 05:54:00;;;;;;;31.07;15.30;;;12.40;99.90;;;;;;5031302;28;20209;-77
2022/10/22 05:56:30;;;;;;;28.03;13.67;;;12.40;99.90;;;;;;5031549;28;20638;-78
2022/10/22 05:59:00;;;;;;;33.87;14.27;;;12.40;99.90;;;;;;5024626;28;20271;-77
2022/10/22 06:01:36;;;;;;;22.80;13.10;;;12.50;99.90;;;;;;5033012;28;20195;-77
2022/10/22 06:04:05;;;;;;;30.97;13.67;;;12.50;99.90;;;;;;5025194;28;20269;-78
2022/10/22 06:06:44;;;;;;;30.50;13.27;;;12.50;99.90;;;;;;5016749;28;20234;-77
2022/10/22 06:09:25;;;;;;;33.30;13.67;;;12.50;99.90;;;;;;5032529;28;20215;-77
2022/10/22 06:11:52;;;;;;;31.10;13.80;;;12.50;99.90;;;;;;5028129;28;20221;-78
2022/10/22 06:14:19;;;;;;;33.97;14.17;;;12.50;99.90;;;;;;5031164;28;20337;-78
2022/10/22 06:16:46;;;;;;;31.73;13.97;;;12.60;99.90;;;;;;5026050;28;20202;-78
2022/10/22 06:19:15;;;;;;;29.50;12.90;;;12.60;99.90;;;;;;5022041;28;20528;-78
2022/10/22 06:21:43;;;;;;;23.87;12.90;;;12.60;99.90;;;;;;5021370;28;20218;-77
2022/10/22 06:24:10;;;;;;;31.33;13.17;;;12.70;99.90;;;;;;5021459;28;20218;-77
2022/10/22 06:26:38;;;;;;;34.13;12.40;;;12.70;99.90;;;;;;5020149;28;20220;-78
2022/10/22 06:29:04;;;;;;;28.27;12.00;;;12.70;99.90;;;;;;5020292;28;20237;-78
2022/10/22 06:31:35;;;;;;;25.23;12.07;;;12.80;99.90;;;;;;5031814;28;20614;-78
2022/10/22 06:34:04;;;;;;;25.87;11.47;;;12.80;99.90;;;;;;5030376;28;20238;-77
2022/10/22 06:36:31;;;;;;;23.77;10.70;;;12.90;99.90;;;;;;5022471;28;20206;-77
2022/10/22 06:38:58;;;;;;;27.37;11.40;;;12.80;99.90;;;;;;5028684;28;20217;-78
2022/10/22 06:41:25;;;;;;;25.63;10.40;;;12.90;99.90;;;;;;5026953;28;20669;-78
2022/10/22 06:43:56;;;;;;;25.70;10.73;;;12.90;99.90;;;;;;5031303;28;20198;-78
2022/10/22 06:46:24;;;;;;;26.13;11.17;;;12.90;99.90;;;;;;5033492;28;20200;-77
2022/10/22 06:48:56;;;;;;;34.70;10.53;;;13.00;99.90;;;;;;5025697;28;20206;-78
2022/10/22 06:51:24;;;;;;;21.93;9.83;;;13.10;99.90;;;;;;5024793;28;20210;-77
2022/10/22 06:53:53;;;;;;;23.30;9.83;;;13.20;99.90;;;;;;5023582;28;20267;-78
2022/10/22 06:56:22;;;;;;;23.60;9.50;;;13.30;99.90;;;;;;5021698;28;20697;-79
2022/10/22 06:58:50;;;;;;;21.70;9.70;;;13.40;99.90;;;;;;5024849;28;20208;-79
2022/10/22 07:01:19;;;;;;;25.90;10.40;;;13.40;99.90;;;;;;5024722;28;20676;-78
2022/10/22 07:03:49;;;;;;;21.00;8.87;;;13.50;99.90;;;;;;5019167;28;20221;-78
2022/10/22 07:06:17;;;;;;;19.40;8.17;;;13.50;99.90;;;;;;5018237;28;20198;-77
2022/10/22 07:08:44;;;;;;;21.17;8.27;;;13.60;99.90;;;;;;5017653;28;20202;-79
2022/10/22 07:11:16;;;;;;;19.90;8.30;;;13.60;99.90;;;;;;5024078;28;20359;-79
2022/10/22 07:13:44;;;;;;;17.60;8.23;;;13.70;99.90;;;;;;5022311;28;20237;-79
2022/10/22 07:16:11;;;;;;;21.67;9.17;;;13.70;99.90;;;;;;5029179;28;20689;-78
2022/10/22 07:18:39;;;;;;;20.47;9.67;;;13.80;99.90;;;;;;5022521;28;20209;-77
2022/10/22 07:21:06;;;;;;;20.63;8.20;;;13.80;99.90;;;;;;5026011;28;20681;-77
2022/10/22 07:23:34;;;;;;;20.27;7.90;;;13.90;99.90;;;;;;5019818;28;20666;-77
2022/10/22 07:26:06;;;;;;;25.63;8.20;;;13.90;99.90;;;;;;5020704;28;20238;-77
2022/10/22 07:28:38;;;;;;;19.63;8.03;;;14.00;99.90;;;;;;5027191;28;20206;-78
2022/10/22 07:31:07;;;;;;;20.77;7.90;;;14.10;99.90;;;;;;5021208;28;20587;-77
2022/10/22 07:33:34;;;;;;;19.03;7.17;;;14.20;99.90;;;;;;5024626;28;20549;-77
2022/10/22 07:36:04;;;;;;;18.67;7.70;;;14.20;99.90;;;;;;5027968;28;20594;-78
2022/10/22 07:38:31;;;;;;;14.63;6.73;;;14.30;99.90;;;;;;5027096;28;20205;-78
2022/10/22 07:40:58;;;;;;;14.37;6.23;;;14.40;99.90;;;;;;5028656;28;20208;-78
2022/10/22 07:43:25;;;;;;;16.37;6.40;;;14.40;99.90;;;;;;5048059;28;20211;-77
2022/10/22 07:45:51;;;;;;;12.43;5.93;;;14.40;99.90;;;;;;5024144;28;20708;-78
2022/10/22 07:48:18;;;;;;;19.53;6.13;;;14.40;99.90;;;;;;5026824;28;20321;-79
2022/10/22 07:50:45;;;;;;;13.13;5.87;;;14.40;99.90;;;;;;5023296;28;20209;-78
2022/10/22 07:53:12;;;;;;;19.93;5.67;;;14.50;99.90;;;;;;5025999;28;20202;-79
2022/10/22 07:55:38;;;;;;;16.70;5.73;;;14.60;99.90;;;;;;5021803;28;20698;-79
2022/10/22 07:58:05;;;;;;;14.47;5.97;;;14.60;99.90;;;;;;5027633;28;20221;-78
2022/10/22 08:00:32;;;;;;;14.50;5.70;;;14.70;99.90;;;;;;5031824;28;20723;-77
2022/10/22 08:02:59;;;;;;;13.33;5.53;;;14.80;99.90;;;;;;5023811;28;20209;-78
2022/10/22 08:05:25;;;;;;;18.00;5.93;;;14.80;99.90;;;;;;5024123;28;20256;-78
2022/10/22 08:07:52;;;;;;;12.53;5.20;;;15.00;99.90;;;;;;5026467;28;20233;-77
2022/10/22 08:10:19;;;;;;;16.87;5.37;;;14.90;99.90;;;;;;5023810;28;20214;-83
2022/10/22 08:12:46;;;;;;;13.70;5.57;;;15.00;99.90;;;;;;5051719;28;20208;-78
2022/10/22 08:15:13;;;;;;;10.82;5.03;;;15.10;99.90;;;;;;5025034;28;20613;-78
2022/10/22 08:17:40;;;;;;;10.32;4.97;;;15.10;99.90;;;;;;5025583;28;20213;-78
2022/10/22 08:20:08;;;;;;;14.73;4.60;;;15.20;99.90;;;;;;5028230;28;20210;-78
2022/10/22 08:22:35;;;;;;;14.13;5.20;;;15.20;99.90;;;;;;5028920;28;20202;-79
2022/10/22 08:25:02;;;;;;;16.60;5.85;;;15.30;99.90;;;;;;5027576;28;20409;-79
2022/10/22 08:27:29;;;;;;;13.15;5.03;;;15.30;99.90;;;;;;5025195;28;20280;-78
2022/10/22 08:29:55;;;;;;;13.98;4.72;;;15.40;99.90;;;;;;5020755;28;20548;-77
2022/10/22 08:32:22;;;;;;;12.27;4.30;;;15.50;99.90;;;;;;5018016;28;20197;-79
2022/10/22 08:34:49;;;;;;;16.40;4.53;;;15.50;99.90;;;;;;5017244;28;20265;-77
2022/10/22 08:37:16;;;;;;;10.48;4.28;;;15.50;99.90;;;;;;5022357;28;20546;-77
2022/10/22 08:39:43;;;;;;;9.23;3.92;;;15.60;99.90;;;;;;5023751;28;20575;-77
2022/10/22 08:42:47;;;;;;;8.75;3.78;;;15.60;99.90;;;;;;5027987;28;20554;-78
2022/10/22 08:45:30;;;;;;;12.32;4.28;;;15.70;99.90;;;;;;5048617;28;21097;-78
2022/10/22 08:48:22;;;;;;;11.52;4.60;;;15.80;99.90;;;;;;5016064;28;20213;-78
2022/10/22 08:50:53;;;;;;;7.95;4.22;;;15.80;99.90;;;;;;5027176;28;20228;-78
2022/10/22 08:53:29;;;;;;;13.90;4.00;;;15.80;99.90;;;;;;5020621;28;20236;-78
2022/10/22 08:55:56;;;;;;;7.85;3.80;;;15.80;99.90;;;;;;5047084;28;20206;-77
2022/10/22 08:58:46;;;;;;;13.30;4.32;;;15.90;99.90;;;;;;5026100;28;20216;-77
2022/10/22 09:01:22;;;;;;;13.35;4.45;;;15.90;99.90;;;;;;5020565;28;20657;-77
2022/10/22 09:04:10;;;;;;;14.82;4.57;;;15.90;99.90;;;;;;5024943;28;20236;-78
2022/10/22 09:06:39;;;;;;;11.35;3.67;;;16.00;99.90;;;;;;5047034;28;20263;-77
2022/10/22 09:09:17;;;;;;;10.23;4.00;;;16.00;99.90;;;;;;5023277;28;20289;-78
2022/10/22 09:11:47;;;;;;;14.15;4.38;;;16.10;99.90;;;;;;5020906;28;20224;-78
2022/10/22 09:14:24;;;;;;;8.63;3.45;;;16.10;99.90;;;;;;5023982;28;20245;-78
2022/10/22 09:17:13;;;;;;;10.38;3.92;;;16.20;99.90;;;;;;5020689;28;20730;-78
2022/10/22 09:19:55;;;;;;;12.80;4.78;;;16.10;99.90;;;;;;5049622;28;20584;-78
2022/10/22 09:22:37;;;;;;;15.02;4.78;;;16.20;99.90;;;;;;5046725;28;20214;-80
2022/10/22 09:25:20;;;;;;;14.65;4.90;;;16.10;99.90;;;;;;5022338;28;20234;-79
2022/10/22 09:27:48;;;;;;;11.50;4.63;;;16.10;99.90;;;;;;5018936;28;20654;-79
2022/10/22 09:30:18;;;;;;;12.93;4.70;;;16.10;99.90;;;;;;5021452;28;20217;-78
2022/10/22 09:32:47;;;;;;;9.63;4.43;;;16.20;99.90;;;;;;5022203;28;20213;-78
2022/10/22 09:35:14;;;;;;;17.67;5.32;;;16.30;99.90;;;;;;5025420;28;20241;-79
2022/10/22 09:37:51;;;;;;;13.10;5.13;;;16.30;99.90;;;;;;5017964;28;20642;-78
2022/10/22 09:40:18;;;;;;;10.00;5.07;;;16.40;99.90;;;;;;5022733;28;20377;-80
2022/10/22 09:42:46;;;;;;;13.45;5.65;;;16.50;99.90;;;;;;5019673;28;20604;-77
2022/10/22 09:45:25;;;;;;;13.32;5.43;;;16.50;99.90;;;;;;5025852;28;20233;-80
2022/10/22 09:48:15;;;;;;;10.20;4.70;;;16.60;99.90;;;;;;5025355;28;20197;-80
2022/10/22 09:50:43;;;;;;;12.02;4.50;;;16.60;99.90;;;;;;5018987;28;20226;-79
2022/10/22 09:53:12;;;;;;;13.95;5.07;;;16.70;99.90;;;;;;5028102;28;20245;-78
2022/10/22 09:55:41;;;;;;;9.13;4.70;;;16.70;99.90;;;;;;5050831;28;20272;-79
2022/10/22 09:58:11;;;;;;;14.73;4.80;;;16.70;99.90;;;;;;5029371;28;20673;-78
2022/10/22 10:00:44;;;;;;;9.27;5.25;;;16.80;99.90;;;;;;5027643;28;20598;-77
2022/10/22 10:03:21;;;;;;;9.48;5.00;;;16.80;99.90;;;;;;5038685;28;20287;-77
2022/10/22 10:05:52;;;;;;;11.07;4.72;;;16.80;99.90;;;;;;5018211;28;20233;-78
2022/10/22 10:08:21;;;;;;;12.32;5.07;;;16.90;99.90;;;;;;5052213;28;20302;-77
2022/10/22 10:10:58;;;;;;;13.07;5.07;;;16.90;99.90;;;;;;5028716;28;21025;-76
2022/10/22 10:13:50;;;;;;;17.52;5.07;;;17.00;99.90;;;;;;5023415;28;20205;-77
2022/10/22 10:16:55;;;;;;;9.07;4.45;;;17.10;99.90;;;;;;5026648;28;20340;-78
2022/10/22 10:19:40;;;;;;;13.35;4.90;;;17.30;99.90;;;;;;5025702;28;20304;-78
2022/10/22 10:22:26;;;;;;;11.75;4.45;;;17.40;99.90;;;;;;5049834;28;20234;-78
2022/10/22 10:25:11;;;;;;;8.43;4.43;;;17.40;99.90;;;;;;5051347;28;20551;-80
2022/10/22 10:28:00;;;;;;;11.00;4.22;;;17.40;99.90;;;;;;5025741;28;21199;-79
2022/10/22 10:30:27;;;;;;;13.30;5.18;;;17.40;99.90;;;;;;5024908;28;20198;-78
2022/10/22 10:33:04;;;;;;;12.13;4.75;;;17.30;99.90;;;;;;5028625;28;20241;-78
2022/10/22 10:35:45;;;;;;;9.68;4.60;;;17.30;99.90;;;;;;5048270;28;20229;-79
2022/10/22 10:38:21;;;;;;;12.95;5.28;;;17.30;99.90;;;;;;5025171;28;20209;-79
2022/10/22 10:41:25;;;;;;;11.27;3.92;;;17.40;99.90;;;;;;5026458;28;20232;-79
2022/10/22 10:44:09;;;;;;;12.98;4.47;;;17.40;99.90;;;;;;5024198;28;20219;-79
2022/10/22 10:47:11;;;;;;;7.88;3.88;;;17.50;99.90;;;;;;5023139;28;20703;-78
2022/10/22 10:49:38;;;;;;;12.15;4.57;;;17.60;99.90;;;;;;5024070;28;20303;-80
2022/10/22 10:52:17;;;;;;;12.20;4.13;;;17.60;99.90;;;;;;5029117;28;20262;-78
2022/10/22 10:54:56;;;;;;;10.40;3.70;;;17.80;99.90;;;;;;5022749;28;20233;-80
2022/10/22 10:57:37;;;;;;;9.82;3.85;;;17.90;99.90;;;;;;5022075;28;20214;-80
2022/10/22 11:00:13;;;;;;;9.57;4.00;;;18.00;99.90;;;;;;5024729;28;20198;-80
2022/10/22 11:02:53;;;;;;;9.95;4.38;;;18.10;99.90;;;;;;5024314;28;20669;-78
2022/10/22 11:05:29;;;;;;;10.23;4.40;;;18.20;99.90;;;;;;5027602;28;20218;-80
2022/10/22 11:08:10;;;;;;;11.05;3.92;;;18.10;99.90;;;;;;5028760;28;20677;-76
2022/10/22 11:10:49;;;;;;;8.52;3.70;;;18.20;99.90;;;;;;5029791;28;20208;-79
2022/10/22 11:13:38;;;;;;;11.85;3.92;;;18.00;99.90;;;;;;5020585;28;20300;-78
2022/10/22 11:16:48;;;;;;;12.55;4.50;;;18.00;99.90;;;;;;5022428;28;20214;-78
2022/10/22 11:19:17;;;;;;;11.88;4.38;;;18.00;99.90;;;;;;5000791;28;20256;-79
2022/10/22 11:22:05;;;;;;;12.40;3.53;;;18.00;99.90;;;;;;5034751;28;20209;-78
2022/10/22 11:24:38;;;;;;;13.35;3.88;;;18.10;99.90;;;;;;5032236;28;20206;-79
2022/10/22 11:27:13;;;;;;;14.77;3.88;;;18.10;99.90;;;;;;5021613;28;20243;-79
2022/10/22 11:29:45;;;;;;;11.95;3.53;;;18.10;99.90;;;;;;5033189;28;20197;-77
2022/10/22 11:32:19;;;;;;;9.18;3.28;;;18.10;99.90;;;;;;5026775;28;20285;-79
2022/10/22 11:35:08;;;;;;;10.13;3.03;;;18.20;99.90;;;;;;5050587;28;20958;-81
2022/10/22 11:37:37;;;;;;;12.50;3.38;;;18.50;99.90;;;;;;5022858;28;20202;-78
2022/10/22 11:40:34;;;;;;;17.55;3.40;;;18.30;99.90;;;;;;5029242;28;20219;-81
2022/10/22 11:43:06;;;;;;;10.02;3.13;;;18.40;99.90;;;;;;5026906;28;20210;-80
2022/10/22 11:45:35;;;;;;;10.95;3.08;;;18.40;99.90;;;;;;5025414;28;20320;-80
2022/10/22 11:48:18;;;;;;;9.15;3.00;;;18.50;99.90;;;;;;5030492;28;20301;-79
2022/10/22 11:51:01;;;;;;;8.77;2.97;;;18.60;99.90;;;;;;5026977;28;20216;-78
2022/10/22 11:53:36;;;;;;;12.50;2.80;;;18.70;99.90;;;;;;5028749;28;20237;-77
2022/10/22 11:56:06;;;;;;;8.25;2.85;;;18.70;99.90;;;;;;5020245;28;20574;-79
2022/10/22 11:58:41;;;;;;;11.40;2.80;;;18.70;99.90;;;;;;5027777;28;20202;-77
2022/10/22 12:01:07;;;;;;;8.95;3.05;;;18.70;99.90;;;;;;5049233;28;20205;-77
2022/10/22 12:03:39;;;;;;;7.22;2.53;;;18.60;99.90;;;;;;5024129;28;20517;-79
2022/10/22 12:06:18;;;;;;;6.10;2.58;;;18.60;99.90;;;;;;5032020;28;20271;-78
2022/10/22 12:08:48;;;;;;;10.88;2.50;;;18.60;99.90;;;;;;5022563;28;20541;-79
2022/10/22 12:11:21;;;;;;;12.05;2.63;;;18.50;99.90;;;;;;5031015;28;20211;-79
2022/10/22 12:14:06;;;;;;;10.93;2.80;;;18.50;99.90;;;;;;5023478;28;20251;-79
2022/10/22 12:16:39;;;;;;;9.68;2.92;;;18.50;99.90;;;;;;5029552;28;20622;-78
2022/10/22 12:19:23;;;;;;;9.18;2.60;;;18.60;99.90;;;;;;5031249;28;20583;-79
2022/10/22 12:22:05;;;;;;;11.10;2.33;;;18.80;99.90;;;;;;5025058;28;20206;-79
2022/10/22 12:24:43;;;;;;;6.80;2.10;;;18.90;99.90;;;;;;5035481;28;20203;-80
2022/10/22 12:27:24;;;;;;;10.43;2.53;;;19.10;99.90;;;;;;5035169;28;20236;-81
2022/10/22 12:29:56;;;;;;;8.07;2.53;;;19.10;99.90;;;;;;5027410;28;20202;-78
2022/10/22 12:32:40;;;;;;;8.70;2.08;;;19.10;99.90;;;;;;5027247;28;20205;-78
2022/10/22 12:35:13;;;;;;;9.68;2.10;;;19.20;99.90;;;;;;5022613;28;20610;-79
2022/10/22 12:37:40;;;;;;;9.77;2.55;;;19.20;99.90;;;;;;5034224;28;20422;-79
2022/10/22 12:40:26;;;;;;;7.45;1.92;;;19.20;99.90;;;;;;5029453;28;20210;-79
2022/10/22 12:43:11;;;;;;;5.63;1.80;;;19.30;99.90;;;;;;5025009;28;20218;-78
2022/10/22 12:45:40;;;;;;;8.75;2.35;;;19.40;99.90;;;;;;5029905;28;20225;-80
2022/10/22 12:48:33;;;;;;;9.32;2.85;;;19.50;99.90;;;;;;5038454;28;20218;-77
2022/10/22 12:51:02;;;;;;;11.73;2.75;;;19.70;99.90;;;;;;5021820;28;20582;-78
2022/10/22 12:53:48;;;;;;;7.88;2.95;;;19.60;99.90;;;;;;5035390;28;20654;-77
2022/10/22 12:56:41;;;;;;;10.60;2.88;;;19.50;99.90;;;;;;5022548;28;20262;-79
2022/10/22 12:59:26;;;;;;;8.65;2.13;;;19.40;99.90;;;;;;5018764;28;20301;-79
2022/10/22 13:01:54;;;;;;;10.00;2.08;;;19.30;99.90;;;;;;5028099;28;20296;-78